createdAt,value
2023-02-27T00:00:32.398Z,16.98
2023-02-27T00:01:32.451Z,16.99
2023-02-27T00:02:32.573Z,16.98
2023-02-27T00:03:32.581Z,16.98
2023-02-27T00:04:32.565Z,16.98
2023-02-27T00:05:32.618Z,17.02
2023-02-27T00:06:32.668Z,16.99
2023-02-27T00:07:32.728Z,17.00
2023-02-27T00:08:32.772Z,16.99
2023-02-27T00:09:32.790Z,16.99
2023-02-27T00:10:32.810Z,16.99
2023-02-27T00:11:32.894Z,16.99
2023-02-27T00:12:32.904Z,16.98
2023-02-27T00:13:32.955Z,16.99
2023-02-27T00:14:32.983Z,16.96
2023-02-27T00:15:33.027Z,16.97
2023-02-27T00:16:33.041Z,16.97
2023-02-27T00:17:33.085Z,16.96
2023-02-27T00:18:33.130Z,16.93
2023-02-27T00:19:33.148Z,16.93
2023-02-27T00:20:33.198Z,16.94
2023-02-27T00:21:34.760Z,16.91
2023-02-27T00:22:33.231Z,16.91
2023-02-27T00:23:33.222Z,16.90
2023-02-27T00:24:33.239Z,16.86
2023-02-27T00:25:33.198Z,16.82
2023-02-27T00:26:33.182Z,16.88
2023-02-27T00:27:33.169Z,16.80
2023-02-27T03:16:36.454Z,16.28
2023-02-27T03:17:36.464Z,16.27
2023-02-27T03:18:36.494Z,16.27
2023-02-27T03:19:36.521Z,16.26
2023-02-27T03:20:36.547Z,16.27
2023-02-27T03:21:36.548Z,16.29
2023-02-27T03:22:36.555Z,16.31
2023-02-27T03:23:36.576Z,16.29
2023-02-27T03:24:36.574Z,16.27
2023-02-27T03:25:36.580Z,16.25
2023-02-27T03:26:36.622Z,16.29
2023-02-27T03:27:36.666Z,16.28
2023-02-27T03:28:36.668Z,16.28
2023-02-27T03:29:36.714Z,16.21
2023-02-27T03:30:36.720Z,16.29
2023-02-27T03:31:36.855Z,16.24
2023-02-27T03:32:36.735Z,16.26
2023-02-27T03:33:36.779Z,16.24
2023-02-27T03:34:36.778Z,16.24
2023-02-27T03:35:36.811Z,16.24
2023-02-27T03:36:36.831Z,16.23
2023-02-27T03:37:36.867Z,16.21
2023-02-27T03:38:36.845Z,16.22
2023-02-27T03:39:36.852Z,16.23
2023-02-27T03:40:36.881Z,16.21
2023-02-27T03:41:36.883Z,16.22
2023-02-27T03:42:36.912Z,16.27
2023-02-27T03:43:36.936Z,16.23
2023-02-27T03:44:36.947Z,16.21
2023-02-27T03:45:36.953Z,16.23
2023-02-27T03:46:36.984Z,16.24
2023-02-27T03:47:36.989Z,16.24
2023-02-27T03:48:37.036Z,16.23
2023-02-27T03:49:37.008Z,16.18
2023-02-27T03:50:37.001Z,16.20
2023-02-27T03:51:37.030Z,16.22
2023-02-27T03:52:37.068Z,16.22
2023-02-27T03:53:37.076Z,16.18
2023-02-27T03:54:37.093Z,16.22
2023-02-27T03:55:37.081Z,16.20
2023-02-27T03:56:37.091Z,16.17
2023-02-27T03:57:37.115Z,16.19
2023-02-27T03:58:37.115Z,16.19
2023-02-27T03:59:37.117Z,16.18
2023-02-27T04:00:37.129Z,16.20
2023-02-27T04:01:37.189Z,16.19
2023-02-27T04:02:37.176Z,16.19
2023-02-27T04:03:37.175Z,16.15
2023-02-27T04:04:37.195Z,16.19
2023-02-27T04:05:37.178Z,16.18
2023-02-27T04:06:37.232Z,16.19
2023-02-27T04:07:37.191Z,16.16
2023-02-27T04:08:37.232Z,16.20
2023-02-27T04:09:37.218Z,16.12
2023-02-27T04:10:37.230Z,16.16
2023-02-27T04:11:37.256Z,16.17
2023-02-27T04:12:37.242Z,16.17
2023-02-27T04:13:37.261Z,16.16
2023-02-27T04:14:37.297Z,16.18
2023-02-27T04:15:37.248Z,16.14
2023-02-27T04:16:37.269Z,16.16
2023-02-27T04:17:37.280Z,16.18
2023-02-27T04:18:37.287Z,16.15
2023-02-27T04:19:37.310Z,16.14
2023-02-27T04:20:37.331Z,16.10
2023-02-27T04:21:37.339Z,16.15
2023-02-27T04:22:37.365Z,16.16
2023-02-27T04:23:37.368Z,16.15
2023-02-27T04:24:37.365Z,16.13
2023-02-27T04:25:37.371Z,16.14
2023-02-27T04:26:37.405Z,16.15
2023-02-27T04:27:37.382Z,16.13
2023-02-27T04:28:37.397Z,16.10
2023-02-27T04:29:37.384Z,16.17
2023-02-27T04:30:37.391Z,16.12
2023-02-27T04:31:37.465Z,16.16
2023-02-27T04:32:37.589Z,16.13
2023-02-27T04:33:37.455Z,16.19
2023-02-27T04:34:37.428Z,16.12
2023-02-27T04:35:37.468Z,16.13
2023-02-27T04:36:37.486Z,16.14
2023-02-27T04:37:37.474Z,16.14
2023-02-27T04:38:37.499Z,16.11
2023-02-27T04:39:37.511Z,16.11
2023-02-27T04:40:37.499Z,16.12
2023-02-27T04:41:37.524Z,16.10
2023-02-27T04:42:37.566Z,16.11
2023-02-27T04:43:37.578Z,16.10
2023-02-27T04:44:37.551Z,16.08
2023-02-27T04:45:37.597Z,16.10
2023-02-27T04:46:37.600Z,16.11
2023-02-27T04:47:37.601Z,16.12
2023-02-27T04:48:37.565Z,16.14
2023-02-27T04:49:37.610Z,16.11
2023-02-27T04:50:37.632Z,16.12
2023-02-27T04:51:37.606Z,16.13
2023-02-27T04:52:37.666Z,16.11
2023-02-27T04:53:37.624Z,16.11
2023-02-27T04:54:37.657Z,16.13
2023-02-27T04:55:37.653Z,16.11
2023-02-27T04:56:37.700Z,16.09
2023-02-27T04:57:37.710Z,16.09
2023-02-27T04:58:37.719Z,16.11
2023-02-27T04:59:37.738Z,16.10
2023-02-27T05:00:37.754Z,16.10
2023-02-27T05:01:37.767Z,16.09
2023-02-27T05:02:37.843Z,16.08
2023-02-27T05:03:37.775Z,16.12
2023-02-27T05:04:37.823Z,16.13
2023-02-27T05:05:37.803Z,16.09
2023-02-27T05:06:37.836Z,16.12
2023-02-27T05:07:37.848Z,16.10
2023-02-27T05:08:37.904Z,16.09
2023-02-27T05:09:37.906Z,16.07
2023-02-27T05:10:37.958Z,16.05
2023-02-27T05:11:37.969Z,16.08
2023-02-27T05:12:37.984Z,16.11
2023-02-27T05:13:38.041Z,16.13
2023-02-27T05:14:38.018Z,16.12
2023-02-27T05:15:38.079Z,16.09
2023-02-27T05:16:38.860Z,16.13
2023-02-27T05:17:38.152Z,16.13
2023-02-27T05:18:38.130Z,16.13
2023-02-27T05:19:38.138Z,16.13
2023-02-27T05:20:38.169Z,16.14
2023-02-27T05:21:38.214Z,16.13
2023-02-27T05:22:38.208Z,16.15
2023-02-27T05:23:38.218Z,16.15
2023-02-27T05:24:38.253Z,16.13
2023-02-27T05:25:38.254Z,16.14
2023-02-27T05:26:38.295Z,16.13
2023-02-27T05:27:38.323Z,16.14
2023-02-27T05:28:38.376Z,16.15
2023-02-27T05:29:38.394Z,16.12
2023-02-27T05:30:38.390Z,16.12
2023-02-27T05:31:38.470Z,16.14
2023-02-27T05:32:38.541Z,16.13
2023-02-27T05:33:38.481Z,16.15
2023-02-27T05:34:38.513Z,16.11
2023-02-27T05:35:38.586Z,16.15
2023-02-27T05:36:38.571Z,16.14
2023-02-27T05:37:38.591Z,16.18
2023-02-27T05:38:38.614Z,16.19
2023-02-27T05:39:38.661Z,16.14
2023-02-27T05:40:38.698Z,16.16
2023-02-27T05:41:38.739Z,16.15
2023-02-27T05:42:38.754Z,16.17
2023-02-27T05:43:38.803Z,16.17
2023-02-27T05:44:38.842Z,16.14
2023-02-27T05:45:38.864Z,16.13
2023-02-27T05:46:38.878Z,16.16
2023-02-27T05:47:38.887Z,16.13
2023-02-27T05:48:38.937Z,16.17
2023-02-27T05:49:38.965Z,16.15
2023-02-27T05:50:39.004Z,16.18
2023-02-27T05:51:39.030Z,16.13
2023-02-27T05:52:39.075Z,16.13
2023-02-27T05:53:39.096Z,16.11
2023-02-27T05:54:39.139Z,16.13
2023-02-27T05:55:39.186Z,16.10
2023-02-27T05:56:39.193Z,16.11
2023-02-27T05:57:39.253Z,16.10
2023-02-27T05:59:39.333Z,16.11
2023-02-27T06:00:46.884Z,16.13
2023-02-27T06:45:47.066Z,17.83
2023-02-27T07:50:39.616Z,20.71
2023-02-27T07:51:39.615Z,20.83
2023-02-27T07:52:39.620Z,21.26
2023-02-27T07:53:39.865Z,21.57
2023-02-27T07:54:39.624Z,21.44
2023-02-27T07:55:39.600Z,21.94
2023-02-27T07:56:39.578Z,21.99
2023-02-27T07:57:39.591Z,21.66
2023-02-27T07:58:39.631Z,21.74
2023-02-27T07:59:39.568Z,21.92
2023-02-27T08:00:39.535Z,22.26
2023-02-27T08:01:39.538Z,22.55
2023-02-27T08:02:39.569Z,22.37
2023-02-27T08:03:39.950Z,22.26
2023-02-27T08:04:39.588Z,22.47
2023-02-27T08:05:39.491Z,22.51
2023-02-27T08:06:39.512Z,22.56
2023-02-27T08:07:39.498Z,22.46
2023-02-27T08:08:39.906Z,22.53
2023-02-27T08:09:39.492Z,23.33
2023-02-27T08:10:39.478Z,22.92
2023-02-27T08:11:39.456Z,22.85
2023-02-27T08:12:39.442Z,22.88
2023-02-27T08:13:59.506Z,22.99
2023-02-27T08:14:40.474Z,22.86
2023-02-27T08:15:39.473Z,22.79
2023-02-27T08:16:39.508Z,22.79
2023-02-27T08:17:39.432Z,23.14
2023-02-27T08:18:39.405Z,23.28
2023-02-27T08:19:39.461Z,23.17
2023-02-27T08:20:39.437Z,23.32
2023-02-27T08:21:39.383Z,23.04
2023-02-27T08:31:39.468Z,23.38
2023-02-27T08:32:39.392Z,23.09
2023-02-27T08:33:39.425Z,22.44
2023-02-27T08:35:39.406Z,22.07
2023-02-27T08:36:39.408Z,21.50
2023-02-27T08:37:39.392Z,20.83
2023-02-27T08:38:39.418Z,20.24
2023-02-27T08:40:39.464Z,20.02
2023-02-27T08:41:39.497Z,20.07
2023-02-27T08:42:39.547Z,19.33
2023-02-27T08:43:39.546Z,19.03
2023-02-27T12:05:46.933Z,20.05
2023-02-27T12:11:46.466Z,20.68
2023-02-27T12:16:46.569Z,20.86
2023-02-27T12:17:46.478Z,21.00
2023-02-27T12:18:46.492Z,20.96
2023-02-27T12:19:46.560Z,21.14
2023-02-27T12:20:46.621Z,21.43
2023-02-27T12:21:48.495Z,21.46
2023-02-27T12:22:46.626Z,21.93
2023-02-27T12:23:46.579Z,21.78
2023-02-27T12:24:46.601Z,22.15
2023-02-27T12:25:46.597Z,21.86
2023-02-27T12:26:46.662Z,21.60
2023-02-27T12:27:46.617Z,22.07
2023-02-27T12:28:46.582Z,21.80
2023-02-27T12:29:46.607Z,21.61
2023-02-27T12:30:46.586Z,21.16
2023-02-27T12:31:47.066Z,21.16
2023-02-27T12:32:48.094Z,21.00
2023-02-27T12:33:46.730Z,21.05
2023-02-27T12:34:46.760Z,20.99
2023-02-27T12:35:46.789Z,20.87
2023-02-27T12:36:47.032Z,20.78
2023-02-27T12:37:46.881Z,20.77
2023-02-27T12:38:46.948Z,20.81
2023-02-27T12:39:46.977Z,20.76
2023-02-27T12:40:47.047Z,20.74
2023-02-27T12:41:47.079Z,20.75
2023-02-27T12:42:47.083Z,20.72
2023-02-27T12:43:47.127Z,20.72
2023-02-27T12:44:47.189Z,20.69
2023-02-27T12:45:47.252Z,20.65
2023-02-27T12:46:47.302Z,20.63
2023-02-27T12:47:47.329Z,20.61
2023-02-27T12:48:47.399Z,20.59
2023-02-27T12:49:47.428Z,20.59
2023-02-27T12:50:47.467Z,20.54
2023-02-27T12:51:47.543Z,20.53
2023-02-27T12:52:47.627Z,20.50
2023-02-27T12:53:47.639Z,20.49
2023-02-27T12:54:47.677Z,20.46
2023-02-27T12:55:47.748Z,20.46
2023-02-27T12:56:47.978Z,20.44
2023-02-27T12:57:47.867Z,20.43
2023-02-27T12:58:47.947Z,20.42
2023-02-27T12:59:47.971Z,20.37
2023-02-27T13:00:48.064Z,20.35
2023-02-27T13:01:48.130Z,20.31
2023-02-27T13:02:48.170Z,20.28
2023-02-27T13:03:48.247Z,20.27
2023-02-27T13:04:48.241Z,20.24
2023-02-27T13:05:48.335Z,20.25
2023-02-27T13:06:48.394Z,20.19
2023-02-27T13:07:48.418Z,20.18
2023-02-27T13:08:48.479Z,20.13
2023-02-27T13:09:48.535Z,20.10
2023-02-27T13:10:48.584Z,20.08
2023-02-27T13:11:48.644Z,20.06
2023-02-27T13:12:48.711Z,20.04
2023-02-27T13:13:48.791Z,20.02
2023-02-27T13:14:48.877Z,20.01
2023-02-27T13:15:48.922Z,19.98
2023-02-27T13:16:48.975Z,19.95
2023-02-27T13:17:49.030Z,19.92
2023-02-27T13:18:49.078Z,19.93
2023-02-27T13:19:49.154Z,19.90
2023-02-27T13:20:49.165Z,19.87
2023-02-27T13:21:49.324Z,19.86
2023-02-27T13:22:49.365Z,19.84
2023-02-27T13:23:49.394Z,19.80
2023-02-27T13:24:49.439Z,19.79
2023-02-27T13:25:49.478Z,19.78
2023-02-27T13:26:49.565Z,19.76
2023-02-27T13:27:49.575Z,19.73
2023-02-27T13:28:49.640Z,19.72
2023-02-27T13:29:49.693Z,19.72
2023-02-27T13:30:49.741Z,19.69
2023-02-27T13:31:50.196Z,19.68
2023-02-27T13:32:50.057Z,19.66
2023-02-27T13:33:49.912Z,19.66
2023-02-27T13:34:49.983Z,19.71
2023-02-27T13:35:50.083Z,19.75
2023-02-27T13:36:50.101Z,19.79
2023-02-27T13:37:50.157Z,19.95
2023-02-27T13:38:50.221Z,19.99
2023-02-27T13:39:50.283Z,19.97
2023-02-27T13:40:50.317Z,20.04
2023-02-27T13:41:50.414Z,20.04
2023-02-27T13:42:50.462Z,20.15
2023-02-27T13:43:52.699Z,20.17
2023-02-27T13:44:50.661Z,20.20
2023-02-27T13:45:50.768Z,20.17
2023-02-27T13:46:50.815Z,20.10
2023-02-27T13:47:50.857Z,20.09
2023-02-27T13:48:50.888Z,20.10
2023-02-27T13:49:50.978Z,20.11
2023-02-27T13:50:51.005Z,20.09
2023-02-27T13:51:51.092Z,20.07
2023-02-27T13:52:51.154Z,20.05
2023-02-27T13:53:51.197Z,20.04
2023-02-27T13:54:55.077Z,19.99
2023-02-27T13:55:51.244Z,20.17
2023-02-27T13:56:51.219Z,20.09
2023-02-27T13:57:51.232Z,20.09
2023-02-27T13:58:51.213Z,20.07
2023-02-27T13:59:51.236Z,20.08
2023-02-27T14:00:51.242Z,20.03
2023-02-27T14:01:51.224Z,20.04
2023-02-27T14:02:59.216Z,20.01
2023-02-27T14:03:52.177Z,20.02
2023-02-27T14:04:51.251Z,20.04
2023-02-27T14:05:51.182Z,20.02
2023-02-27T14:06:51.155Z,20.00
2023-02-27T14:07:51.143Z,19.97
2023-02-27T14:08:51.135Z,19.97
2023-02-27T14:09:51.127Z,19.93
2023-02-27T14:10:51.125Z,19.90
2023-02-27T14:11:51.157Z,19.89
2023-02-27T14:12:51.140Z,19.85
2023-02-27T14:13:51.229Z,19.84
2023-02-27T14:14:51.228Z,19.82
2023-02-27T14:15:51.404Z,19.80
2023-02-27T14:16:51.403Z,19.79
2023-02-27T14:17:54.640Z,19.77
2023-02-27T14:18:52.427Z,19.72
2023-02-27T14:19:51.399Z,19.70
2023-02-27T14:20:51.415Z,19.68
2023-02-27T14:21:51.447Z,19.67
2023-02-27T14:22:51.405Z,19.66
2023-02-27T14:23:51.401Z,19.60
2023-02-27T14:25:02.105Z,19.59
2023-02-27T14:25:52.340Z,19.58
2023-02-27T14:26:51.491Z,19.56
2023-02-27T14:27:51.326Z,19.56
2023-02-27T14:28:51.324Z,19.52
2023-02-27T14:29:51.362Z,19.51
2023-02-27T14:30:51.361Z,19.50
2023-02-27T14:31:51.325Z,19.47
2023-02-27T14:32:51.282Z,19.47
2023-02-27T14:33:51.308Z,19.45
2023-02-27T14:34:51.262Z,19.44
2023-02-27T14:35:51.287Z,19.40
2023-02-27T14:36:51.330Z,19.39
2023-02-27T14:37:51.402Z,19.38
2023-02-27T14:38:51.437Z,19.38
2023-02-27T14:39:51.480Z,19.35
2023-02-27T14:40:51.611Z,19.35
2023-02-27T14:41:51.627Z,19.35
2023-02-27T14:42:51.669Z,19.31
2023-02-27T14:43:51.706Z,19.32
2023-02-27T14:44:51.729Z,19.29
2023-02-27T14:45:51.852Z,19.26
2023-02-27T14:46:51.871Z,19.27
2023-02-27T14:47:51.941Z,19.26
2023-02-27T14:48:51.983Z,19.23
2023-02-27T14:49:52.039Z,19.20
2023-02-27T14:50:53.539Z,19.18
2023-02-27T14:51:52.117Z,19.19
2023-02-27T14:52:52.180Z,19.18
2023-02-27T14:53:52.249Z,19.15
2023-02-27T14:54:52.292Z,19.15
2023-02-27T14:55:52.445Z,19.13
2023-02-27T14:56:52.456Z,19.17
2023-02-27T14:57:52.461Z,19.16
2023-02-27T14:59:03.587Z,18.67
2023-02-27T14:59:53.503Z,18.55
2023-02-27T15:00:52.499Z,18.30
2023-02-27T15:01:52.537Z,18.45
2023-02-27T15:02:52.506Z,18.87
2023-02-27T15:03:52.618Z,18.92
2023-02-27T15:04:52.487Z,18.86
2023-02-27T15:05:52.584Z,19.19
2023-02-27T15:06:52.483Z,19.49
2023-02-27T15:08:52.555Z,19.33
2023-02-27T15:09:52.582Z,19.75
2023-02-27T15:10:52.636Z,19.75
2023-02-27T15:12:02.934Z,20.21
2023-02-27T16:23:56.483Z,20.06
2023-02-27T16:24:56.518Z,20.06
2023-02-27T16:25:56.590Z,20.04
2023-02-27T16:26:56.672Z,20.03
2023-02-27T16:27:56.769Z,20.01
2023-02-27T16:28:56.796Z,19.99
2023-02-27T16:29:56.864Z,19.92
2023-02-27T16:30:56.903Z,19.97
2023-02-27T16:31:57.202Z,19.95
2023-02-27T16:32:57.066Z,19.94
2023-02-27T16:33:57.150Z,19.96
2023-02-27T16:34:57.161Z,19.95
2023-02-27T16:35:57.230Z,19.95
2023-02-27T16:36:57.261Z,19.95
2023-02-27T16:37:57.323Z,19.95
2023-02-27T16:38:57.382Z,19.94
2023-02-27T16:39:57.429Z,19.93
2023-02-27T16:40:57.571Z,19.90
2023-02-27T16:41:57.564Z,19.90
2023-02-27T16:42:57.616Z,19.88
2023-02-27T16:43:57.684Z,19.89
2023-02-27T16:44:57.693Z,19.89
2023-02-27T16:45:57.738Z,19.88
2023-02-27T16:46:57.747Z,19.88
2023-02-27T16:47:57.860Z,19.87
2023-02-27T16:48:59.091Z,19.87
2023-02-27T18:41:59.724Z,18.86
2023-02-27T18:42:59.770Z,18.84
2023-02-27T18:43:59.769Z,18.83
2023-02-27T18:44:59.753Z,18.90
2023-02-27T18:45:59.738Z,18.81
2023-02-27T18:46:59.806Z,18.83
2023-02-27T18:47:59.719Z,18.81
2023-02-27T18:48:59.725Z,18.86
2023-02-27T18:49:59.723Z,18.85
2023-02-27T18:50:59.773Z,18.85
2023-02-27T18:51:59.695Z,18.86
2023-02-27T18:52:59.714Z,18.84
2023-02-27T18:53:59.738Z,18.83
2023-02-27T18:54:59.741Z,18.83
2023-02-27T18:55:59.712Z,18.82
2023-02-27T18:56:59.777Z,18.81
2023-02-27T18:57:59.749Z,18.84
2023-02-27T18:58:59.730Z,18.81
2023-02-27T18:59:59.752Z,18.79
2023-02-27T19:00:59.734Z,18.78
2023-02-27T19:01:59.780Z,18.81
2023-02-27T19:02:59.834Z,18.73
2023-02-27T19:03:59.813Z,18.79
2023-02-27T19:04:59.741Z,18.75
2023-02-27T19:06:59.765Z,18.73
2023-02-27T19:07:59.741Z,18.79
2023-02-27T19:08:59.748Z,18.79
2023-02-27T19:09:59.809Z,18.78
2023-02-27T19:10:59.754Z,18.73
2023-02-27T19:11:59.760Z,18.77
2023-02-27T19:12:59.754Z,18.73
2023-02-27T19:13:59.781Z,18.73
2023-02-27T19:14:59.742Z,18.74
2023-02-27T19:15:59.792Z,18.74
2023-02-27T19:16:59.766Z,18.73
2023-02-27T19:17:59.778Z,18.65
2023-02-27T19:18:59.774Z,18.66
2023-02-27T19:19:59.746Z,18.67
2023-02-27T19:20:59.760Z,18.69
2023-02-27T19:21:59.739Z,18.65
2023-02-27T19:22:59.751Z,18.68
2023-02-27T19:23:59.750Z,18.72
2023-02-27T19:24:59.742Z,18.64
2023-02-27T19:25:59.742Z,18.72
2023-02-27T19:26:59.711Z,18.65
2023-02-27T19:27:59.730Z,18.62
2023-02-27T19:28:59.734Z,18.59
2023-02-27T19:29:59.715Z,18.67
2023-02-27T19:30:59.693Z,18.63
2023-02-27T19:31:59.767Z,18.67
2023-02-27T19:32:59.696Z,18.64
2023-02-27T19:33:59.687Z,18.62
2023-02-27T19:34:59.702Z,18.65
2023-02-27T19:35:59.755Z,18.64
2023-02-27T19:36:59.683Z,18.60
2023-02-27T19:37:59.696Z,18.56
2023-02-27T19:38:59.652Z,18.59
2023-02-27T19:39:59.704Z,18.57
2023-02-27T19:40:59.717Z,18.55
2023-02-27T19:41:59.718Z,18.58
2023-02-27T19:42:59.659Z,18.55
2023-02-27T19:43:59.675Z,18.55
2023-02-27T19:44:59.673Z,18.49
2023-02-27T19:45:59.684Z,18.53
2023-02-27T19:46:59.703Z,18.54
2023-02-27T19:47:59.665Z,18.53
2023-02-27T19:48:59.626Z,18.54
2023-02-27T19:49:59.618Z,18.54
2023-02-27T19:50:59.646Z,18.59
2023-02-27T19:51:59.638Z,18.57
2023-02-27T19:52:59.638Z,18.53
2023-02-27T19:53:59.623Z,18.52
2023-02-27T19:54:59.640Z,18.53
2023-02-27T19:55:59.607Z,18.50
2023-02-27T19:56:59.607Z,18.51
2023-02-27T19:57:59.620Z,18.53
2023-02-27T19:58:59.604Z,18.54
2023-02-27T19:59:59.612Z,18.47
2023-02-27T20:00:59.628Z,18.52
2023-02-27T20:01:59.606Z,18.50
2023-02-27T20:02:59.599Z,18.47
2023-02-27T20:03:59.643Z,18.47
2023-02-27T20:04:59.611Z,18.49
2023-02-27T20:05:59.583Z,18.48
2023-02-27T20:06:59.615Z,18.40
2023-02-27T20:07:59.585Z,18.42
2023-02-27T20:08:59.614Z,18.43
2023-02-27T20:09:59.562Z,18.44
2023-02-27T20:10:59.571Z,18.44
2023-02-27T20:11:59.546Z,18.46
2023-02-27T20:12:59.595Z,18.45
2023-02-27T20:13:59.607Z,18.41
2023-02-27T20:14:59.581Z,18.35
2023-02-27T20:15:59.582Z,18.40
2023-02-27T20:16:59.652Z,18.43
2023-02-27T20:17:59.595Z,18.46
2023-02-27T20:18:59.579Z,18.40
2023-02-27T20:19:59.588Z,18.44
2023-02-27T20:20:59.587Z,18.40
2023-02-27T20:21:59.585Z,18.40
2023-02-27T20:22:59.562Z,18.39
2023-02-27T20:23:59.563Z,18.39
2023-02-27T20:24:59.561Z,18.42
2023-02-27T20:25:59.618Z,18.41
2023-02-27T20:26:59.583Z,18.44
2023-02-27T20:27:59.594Z,18.39
2023-02-27T20:28:59.614Z,18.35
2023-02-27T20:29:59.589Z,18.39
2023-02-27T20:30:59.614Z,18.31
2023-02-27T20:31:59.767Z,18.28
2023-02-27T20:32:59.606Z,18.32
2023-02-27T20:33:59.625Z,18.31
2023-02-27T20:34:59.606Z,18.31
2023-02-27T20:35:59.611Z,18.30
2023-02-27T20:36:59.594Z,18.33
2023-02-27T20:37:59.620Z,18.32
2023-02-27T20:38:59.646Z,18.34
2023-02-27T20:39:59.594Z,18.35
2023-02-27T20:40:59.606Z,18.32
2023-02-27T20:41:59.622Z,18.31
2023-02-27T20:42:59.631Z,18.28
2023-02-27T20:43:59.662Z,18.31
2023-02-27T20:44:59.628Z,18.33
2023-02-27T20:45:59.712Z,18.31
2023-02-27T21:40:59.755Z,18.06
2023-02-27T21:41:59.787Z,18.08
2023-02-27T21:42:59.770Z,18.07
2023-02-27T21:43:59.772Z,18.05
2023-02-27T21:44:59.731Z,18.07
2023-02-27T21:45:59.780Z,18.06
2023-02-27T21:46:59.774Z,18.06
2023-02-27T21:47:59.779Z,18.07
2023-02-27T21:48:59.767Z,18.04
2023-02-27T21:49:59.776Z,18.06
2023-02-27T21:50:59.799Z,18.04
2023-02-27T21:51:59.813Z,18.03
2023-02-27T21:52:59.790Z,18.00
2023-02-27T21:53:59.788Z,18.00
2023-02-27T21:54:59.808Z,17.98
2023-02-27T21:55:59.804Z,18.02
2023-02-27T21:56:59.846Z,17.97
2023-02-27T21:57:59.847Z,18.00
2023-02-27T21:58:59.811Z,17.98
2023-02-27T21:59:59.841Z,17.96
2023-02-27T22:00:59.848Z,17.98
2023-02-27T22:01:59.937Z,17.97
2023-02-27T22:02:59.881Z,17.98
2023-02-27T22:03:59.861Z,17.97
2023-02-27T22:04:59.866Z,17.98
2023-02-27T22:05:59.847Z,17.97
2023-02-27T22:06:59.886Z,17.98
2023-02-27T22:07:59.871Z,17.97
2023-02-27T22:08:59.902Z,17.94
2023-02-27T22:09:59.889Z,17.93
2023-02-27T22:10:59.893Z,17.94
2023-02-27T22:11:59.943Z,17.97
2023-02-27T22:12:59.900Z,18.00
2023-02-27T22:14:00.214Z,17.99
2023-02-27T22:14:59.910Z,17.96
2023-02-27T22:16:00.032Z,17.96
2023-02-27T22:16:59.977Z,17.97
2023-02-27T22:17:59.913Z,17.94
2023-02-27T22:18:59.945Z,17.94
2023-02-27T22:19:59.928Z,17.91
2023-02-27T22:20:59.956Z,17.90
2023-02-27T22:21:59.956Z,17.88
2023-02-27T22:22:59.963Z,17.87
2023-02-27T22:23:59.934Z,17.85
2023-02-27T22:24:59.944Z,17.87
2023-02-27T22:25:59.944Z,17.89
2023-02-27T22:26:59.933Z,17.88
2023-02-27T22:27:59.938Z,17.92
2023-02-27T22:28:59.963Z,17.88
2023-02-27T22:29:59.939Z,17.84
2023-02-27T22:31:00.698Z,17.85
2023-02-27T22:31:59.980Z,17.85
2023-02-27T22:32:59.969Z,17.88
2023-02-27T22:33:59.934Z,17.85
2023-02-27T22:34:59.922Z,17.86
2023-02-27T22:36:00.069Z,17.82
2023-02-27T22:36:59.945Z,17.82
2023-02-27T22:38:00.006Z,17.80
2023-02-27T22:38:59.944Z,17.86
2023-02-27T22:39:59.910Z,17.85
2023-02-27T22:40:59.912Z,17.80
2023-02-27T22:41:59.982Z,17.82
2023-02-27T22:42:59.940Z,17.87
2023-02-27T22:43:59.935Z,17.85
2023-02-27T22:44:59.921Z,17.83
2023-02-27T22:45:59.925Z,17.82
2023-02-27T22:46:59.942Z,17.86
2023-02-27T22:47:59.941Z,17.88
2023-02-27T22:48:59.948Z,17.86
2023-02-27T22:49:59.975Z,17.86
2023-02-27T22:50:59.952Z,17.80
2023-02-27T22:51:59.951Z,17.81
2023-02-27T22:52:59.930Z,17.77
2023-02-27T22:53:59.983Z,17.75
2023-02-27T22:54:59.940Z,17.76
2023-02-27T22:55:59.959Z,17.77
2023-02-27T22:56:59.971Z,17.80
2023-02-27T22:57:59.926Z,17.78
2023-02-27T22:58:59.940Z,17.76
2023-02-27T22:59:59.934Z,17.75
2023-02-27T23:00:59.959Z,17.76
2023-02-27T23:02:00.000Z,17.72
2023-02-27T23:02:59.961Z,17.72
2023-02-27T23:04:00.006Z,17.75
2023-02-27T23:04:59.954Z,17.75
2023-02-27T23:05:59.961Z,17.74
2023-02-27T23:06:59.937Z,17.73
2023-02-27T23:07:59.954Z,17.76
2023-02-27T23:08:59.976Z,17.76
2023-02-27T23:09:59.986Z,17.75
2023-02-27T23:10:59.989Z,17.73
2023-02-27T23:11:59.970Z,17.75
2023-02-27T23:13:59.962Z,17.74
2023-02-27T23:15:00.031Z,17.75
2023-02-27T23:16:00.139Z,17.72
2023-02-27T23:16:59.968Z,17.73
2023-02-27T23:17:59.952Z,17.72
2023-02-27T23:19:00.023Z,17.70
2023-02-27T23:19:59.978Z,17.72
2023-02-27T23:20:59.949Z,17.72
2023-02-27T23:21:59.965Z,17.70
2023-02-27T23:22:59.974Z,17.70
2023-02-27T23:24:00.003Z,17.71
2023-02-27T23:24:59.967Z,17.71
2023-02-27T23:26:01.634Z,17.69
2023-02-27T23:26:59.969Z,17.70
2023-02-27T23:27:59.973Z,17.73
2023-02-27T23:28:59.964Z,17.72
2023-02-27T23:29:59.972Z,17.73
2023-02-27T23:30:59.979Z,17.70
2023-02-27T23:32:00.094Z,17.69
